Time;durP1;ratioP1;P1;durP2;ratioP2;P2;SDS_P1;SDS_P2;PMS_P1;PMS_P2;Temp;Humidity;BMP_temperature;BMP_pressure;BME280_temperature;BME280_humidity;BME280_pressure;Samples;Min_cycle;Max_cycle;Signal;HPM_P1;HPM_P2
2021/11/03 00:04:41;;;;;;;2.22;1.20;;;9.80;92.80;;;;;;10046133;28;20045;-65
2021/11/03 00:09:32;;;;;;;3.05;1.23;;;9.60;93.00;;;;;;10048478;28;20021;-66
2021/11/03 00:14:22;;;;;;;2.75;1.85;;;9.70;93.00;;;;;;10047717;28;20041;-65
2021/11/03 00:19:13;;;;;;;2.35;1.00;;;9.60;92.90;;;;;;10045798;28;20026;-66
2021/11/03 00:24:05;;;;;;;2.13;1.33;;;9.60;93.00;;;;;;10031508;28;20033;-68
2021/11/03 00:28:57;;;;;;;2.45;1.48;;;9.70;93.00;;;;;;10048919;28;20550;-68
2021/11/03 00:33:47;;;;;;;2.58;1.63;;;9.70;92.90;;;;;;10014675;28;20034;-69
2021/11/03 00:38:38;;;;;;;2.30;1.60;;;9.70;93.10;;;;;;10049096;28;20037;-71
2021/11/03 00:43:29;;;;;;;3.03;1.55;;;9.80;93.00;;;;;;10033652;28;20358;-72
2021/11/03 00:48:21;;;;;;;3.22;1.35;;;9.70;93.10;;;;;;10044821;28;20808;-72
2021/11/03 00:53:12;;;;;;;4.95;2.00;;;9.70;93.10;;;;;;10049592;28;20054;-68
2021/11/03 00:58:03;;;;;;;4.10;2.03;;;9.70;93.10;;;;;;10049830;28;20033;-68
2021/11/03 01:02:55;;;;;;;4.32;2.00;;;9.70;93.20;;;;;;10044214;28;20371;-66
2021/11/03 01:07:47;;;;;;;3.42;1.92;;;9.70;93.20;;;;;;10049570;28;20037;-67
2021/11/03 01:12:38;;;;;;;5.05;2.30;;;9.60;93.40;;;;;;10050994;28;20107;-67
2021/11/03 01:17:29;;;;;;;2.33;1.92;;;9.60;93.40;;;;;;10050824;28;20129;-67
2021/11/03 01:22:19;;;;;;;3.15;1.50;;;9.70;93.30;;;;;;10054138;28;20117;-66
2021/11/03 01:27:10;;;;;;;3.33;1.38;;;9.70;93.40;;;;;;10054903;28;20067;-66
2021/11/03 01:32:01;;;;;;;1.98;1.27;;;9.70;93.40;;;;;;10056146;28;20022;-67
2021/11/03 01:36:51;;;;;;;3.58;1.60;;;9.60;93.60;;;;;;10053708;28;20124;-66
2021/11/03 01:41:42;;;;;;;2.70;1.90;;;9.60;93.70;;;;;;10048869;28;20450;-66
2021/11/03 01:46:43;;;;;;;1.92;1.20;;;9.50;93.60;;;;;;10053318;28;20092;-67
2021/11/03 01:51:40;;;;;;;2.35;1.25;;;9.60;93.70;;;;;;10053429;28;20040;-66
2021/11/03 01:56:32;;;;;;;3.47;1.42;;;9.60;93.80;;;;;;10053887;28;20194;-66
2021/11/03 02:01:23;;;;;;;3.22;1.15;;;9.50;93.70;;;;;;10053472;28;20049;-67
2021/11/03 02:06:17;;;;;;;1.33;1.23;;;9.50;93.90;;;;;;10054367;28;20041;-65
2021/11/03 02:11:09;;;;;;;3.30;1.35;;;9.60;93.80;;;;;;10049772;28;20595;-67
2021/11/03 02:16:02;;;;;;;2.47;1.27;;;9.60;93.80;;;;;;10047899;28;20041;-67
2021/11/03 02:20:53;;;;;;;2.20;2.03;;;9.60;93.90;;;;;;10018308;28;20033;-67
2021/11/03 02:25:55;;;;;;;2.67;1.52;;;9.50;94.00;;;;;;10048129;28;20029;-66
2021/11/03 02:30:46;;;;;;;2.20;1.15;;;9.50;94.10;;;;;;10034356;28;20029;-67
2021/11/03 02:35:38;;;;;;;2.70;1.33;;;9.60;94.10;;;;;;10051280;28;20409;-66
2021/11/03 02:40:34;;;;;;;2.17;1.70;;;9.60;94.10;;;;;;10048966;28;20501;-68
2021/11/03 02:45:55;;;;;;;3.20;1.83;;;9.70;93.90;;;;;;10051494;28;20043;-69
2021/11/03 02:51:04;;;;;;;2.78;1.95;;;9.60;94.00;;;;;;10044035;28;20594;-69
2021/11/03 02:55:55;;;;;;;3.03;2.00;;;9.60;94.00;;;;;;10056744;28;20069;-69
2021/11/03 03:00:48;;;;;;;2.70;1.55;;;9.60;94.00;;;;;;10062337;28;20036;-69
2021/11/03 03:05:42;;;;;;;2.90;1.95;;;9.50;94.10;;;;;;10058723;28;20274;-68
2021/11/03 03:10:33;;;;;;;2.35;1.52;;;9.60;94.10;;;;;;10062143;28;20053;-67
2021/11/03 03:15:24;;;;;;;2.42;1.60;;;9.60;94.40;;;;;;10062194;28;20048;-67
2021/11/03 03:20:15;;;;;;;2.10;1.20;;;9.60;94.10;;;;;;10054924;28;20501;-67
2021/11/03 03:25:06;;;;;;;1.35;1.08;;;9.60;94.10;;;;;;10033155;28;20041;-67
2021/11/03 03:29:57;;;;;;;2.03;1.48;;;9.50;94.20;;;;;;10051991;28;20502;-73
2021/11/03 03:34:49;;;;;;;4.25;1.33;;;9.60;94.10;;;;;;10046942;28;20034;-68
2021/11/03 03:39:39;;;;;;;2.20;1.30;;;9.60;94.20;;;;;;10046807;28;20155;-68
2021/11/03 03:44:30;;;;;;;2.80;1.65;;;9.50;94.30;;;;;;10050132;28;20172;-72
2021/11/03 03:49:22;;;;;;;1.42;1.10;;;9.60;94.20;;;;;;10031004;28;20016;-69
2021/11/03 03:54:13;;;;;;;2.08;1.30;;;9.50;94.30;;;;;;10049155;28;20127;-68
2021/11/03 03:59:04;;;;;;;3.15;1.17;;;9.50;94.40;;;;;;10051153;28;20385;-69
2021/11/03 04:03:55;;;;;;;2.75;1.45;;;9.50;94.30;;;;;;10029256;28;20032;-69
2021/11/03 04:08:46;;;;;;;3.65;1.63;;;9.60;94.10;;;;;;10041810;28;20112;-69
2021/11/03 04:13:38;;;;;;;2.92;1.80;;;9.60;94.20;;;;;;10037112;28;20470;-70
2021/11/03 04:18:28;;;;;;;2.22;1.67;;;9.70;94.10;;;;;;10047707;28;20112;-69
2021/11/03 04:23:19;;;;;;;3.60;1.92;;;9.60;94.10;;;;;;10040886;28;20112;-67
2021/11/03 04:28:11;;;;;;;2.85;1.77;;;9.60;94.30;;;;;;10043119;28;20029;-69
2021/11/03 04:33:02;;;;;;;4.60;1.40;;;9.60;94.30;;;;;;10046388;28;20399;-71
2021/11/03 04:37:53;;;;;;;3.10;2.08;;;9.60;94.30;;;;;;10043818;28;20038;-71
2021/11/03 04:42:44;;;;;;;2.47;1.85;;;9.50;94.40;;;;;;10040491;28;20108;-67
2021/11/03 04:47:35;;;;;;;3.60;2.42;;;9.60;94.50;;;;;;10048484;28;20037;-70
2021/11/03 04:52:26;;;;;;;5.20;2.03;;;9.60;94.50;;;;;;10053689;28;20757;-67
2021/11/03 04:57:18;;;;;;;2.90;1.88;;;9.60;94.40;;;;;;10052819;28;20088;-71
2021/11/03 05:02:09;;;;;;;2.40;1.80;;;9.50;94.50;;;;;;10049579;28;20033;-71
2021/11/03 05:06:59;;;;;;;5.93;2.30;;;9.60;94.50;;;;;;10048100;28;20416;-69
2021/11/03 05:11:50;;;;;;;5.35;2.03;;;9.60;94.60;;;;;;10051226;28;20030;-67
2021/11/03 05:16:41;;;;;;;3.85;2.08;;;9.70;94.40;;;;;;10050973;28;20033;-68
2021/11/03 05:21:32;;;;;;;4.18;1.58;;;9.70;94.50;;;;;;10052621;28;20030;-71
2021/11/03 05:26:26;;;;;;;4.75;2.10;;;9.60;94.50;;;;;;10054417;28;20025;-69
2021/11/03 05:31:17;;;;;;;2.53;1.42;;;9.70;94.50;;;;;;10052079;28;20029;-69
2021/11/03 05:36:10;;;;;;;2.50;1.67;;;9.60;94.60;;;;;;10052668;28;20051;-68
2021/11/03 05:41:00;;;;;;;3.13;1.48;;;9.60;94.70;;;;;;10035897;28;20029;-71
2021/11/03 05:45:51;;;;;;;2.72;1.33;;;9.50;94.60;;;;;;10050341;28;20037;-67
2021/11/03 05:50:42;;;;;;;2.33;1.60;;;9.50;94.70;;;;;;10052428;28;20280;-74
2021/11/03 05:55:33;;;;;;;2.03;1.40;;;9.60;94.70;;;;;;10032350;28;20511;-73
2021/11/03 06:00:29;;;;;;;2.90;1.90;;;9.60;94.70;;;;;;10049048;28;20037;-69
2021/11/03 06:05:20;;;;;;;2.95;1.85;;;9.60;94.70;;;;;;10059369;28;20021;-76
2021/11/03 06:10:12;;;;;;;3.08;1.52;;;9.60;94.60;;;;;;10017332;28;20128;-76
2021/11/03 06:15:04;;;;;;;2.85;1.65;;;9.70;94.70;;;;;;10055655;28;20354;-70
2021/11/03 06:19:54;;;;;;;4.00;1.52;;;9.60;94.70;;;;;;10053159;28;20030;-65
2021/11/03 06:24:46;;;;;;;2.38;1.60;;;9.70;94.60;;;;;;10049434;28;20041;-65
2021/11/03 06:29:37;;;;;;;2.67;1.60;;;9.70;94.70;;;;;;10032082;28;20026;-65
2021/11/03 06:34:28;;;;;;;3.13;1.27;;;9.70;94.60;;;;;;10058334;28;20120;-65
2021/11/03 06:39:19;;;;;;;3.50;1.60;;;9.70;94.70;;;;;;10052486;28;20053;-67
2021/11/03 06:44:10;;;;;;;5.50;1.42;;;9.70;94.60;;;;;;10054627;28;20100;-67
2021/11/03 06:49:01;;;;;;;3.38;1.60;;;9.70;94.70;;;;;;10053756;28;20022;-70
2021/11/03 06:53:51;;;;;;;4.88;1.80;;;9.80;94.60;;;;;;10048741;28;20462;-67
2021/11/03 06:58:42;;;;;;;4.07;1.58;;;9.70;94.60;;;;;;10056649;28;20033;-66
2021/11/03 07:03:34;;;;;;;3.47;1.65;;;9.80;94.60;;;;;;10050525;28;20013;-66
2021/11/03 07:08:26;;;;;;;2.30;1.58;;;9.70;94.70;;;;;;10048316;28;20103;-69
2021/11/03 07:13:19;;;;;;;4.05;1.77;;;9.80;94.80;;;;;;10049811;28;20053;-72
2021/11/03 07:18:10;;;;;;;4.97;2.65;;;9.80;94.50;;;;;;10051192;28;20021;-72
2021/11/03 07:23:02;;;;;;;2.65;1.58;;;9.80;94.50;;;;;;10046687;28;20051;-72
2021/11/03 07:27:56;;;;;;;4.47;1.75;;;9.80;94.70;;;;;;10032881;28;20025;-68
2021/11/03 07:32:47;;;;;;;3.10;1.90;;;9.70;94.70;;;;;;10050168;28;20029;-69
2021/11/03 07:37:38;;;;;;;3.63;1.98;;;9.80;94.70;;;;;;10022380;28;20056;-66
2021/11/03 07:42:29;;;;;;;2.88;2.20;;;9.60;94.70;;;;;;10045202;28;20025;-66
2021/11/03 07:47:19;;;;;;;3.75;2.45;;;9.70;94.70;;;;;;10031235;28;20025;-65
2021/11/03 07:52:10;;;;;;;2.58;1.50;;;9.80;94.70;;;;;;10048062;28;20095;-67
2021/11/03 07:57:01;;;;;;;4.32;2.67;;;9.70;94.70;;;;;;10052623;28;20546;-67
2021/11/03 08:01:54;;;;;;;4.07;2.17;;;9.70;94.70;;;;;;10049051;28;20436;-65
2021/11/03 08:06:45;;;;;;;5.65;2.08;;;9.80;94.70;;;;;;10032576;28;20095;-67
2021/11/03 08:11:46;;;;;;;4.05;2.83;;;9.80;94.70;;;;;;10044821;28;20033;-73
2021/11/03 08:16:51;;;;;;;4.07;2.42;;;9.90;94.80;;;;;;10056832;28;20529;-69
2021/11/03 08:21:42;;;;;;;4.93;2.53;;;10.00;94.60;;;;;;10068312;28;20041;-73
2021/11/03 08:26:33;;;;;;;3.63;2.15;;;10.00;94.70;;;;;;10069096;28;20025;-77
2021/11/03 08:31:24;;;;;;;3.55;2.25;;;10.00;94.60;;;;;;10055743;28;20576;-73
2021/11/03 08:36:18;;;;;;;3.83;2.33;;;10.00;94.80;;;;;;10055141;28;20057;-69
2021/11/03 08:41:09;;;;;;;4.35;1.95;;;10.10;94.90;;;;;;10036276;28;20112;-70
2021/11/03 08:46:00;;;;;;;4.03;2.17;;;10.10;94.70;;;;;;10052175;28;20113;-71
2021/11/03 08:50:52;;;;;;;4.28;2.63;;;10.20;94.70;;;;;;10023543;28;20125;-73
2021/11/03 08:55:43;;;;;;;3.42;2.08;;;10.20;94.70;;;;;;10046931;28;20041;-69
2021/11/03 09:00:36;;;;;;;5.97;2.72;;;10.30;94.70;;;;;;10054462;28;20045;-72
2021/11/03 09:05:29;;;;;;;3.03;1.98;;;10.30;94.70;;;;;;10053410;28;20109;-70
2021/11/03 09:10:24;;;;;;;2.33;1.70;;;10.30;94.70;;;;;;10020743;28;20052;-71
2021/11/03 09:15:16;;;;;;;2.88;1.80;;;10.30;94.70;;;;;;10034062;28;20137;-71
2021/11/03 09:20:10;;;;;;;3.45;1.88;;;10.40;94.70;;;;;;10052883;28;20703;-69
2021/11/03 09:25:01;;;;;;;3.83;2.80;;;10.40;94.70;;;;;;10054624;28;20030;-67
2021/11/03 09:29:52;;;;;;;3.03;1.90;;;10.40;94.70;;;;;;10037697;28;20052;-67
2021/11/03 09:34:44;;;;;;;3.40;2.22;;;10.50;94.60;;;;;;10048013;28;20418;-70
2021/11/03 09:39:36;;;;;;;3.22;2.13;;;10.50;94.80;;;;;;10048345;28;20473;-73
2021/11/03 09:44:36;;;;;;;2.97;2.17;;;10.60;94.60;;;;;;10049203;28;20025;-70
2021/11/03 09:49:46;;;;;;;3.03;1.90;;;10.60;94.50;;;;;;10049604;28;20033;-70
2021/11/03 09:54:38;;;;;;;3.30;2.20;;;10.60;94.50;;;;;;10046666;28;20068;-69
2021/11/03 09:59:54;;;;;;;4.07;2.38;;;10.70;94.50;;;;;;10049957;28;20330;-67
2021/11/03 10:04:45;;;;;;;;;;;10.70;94.50;;;;;;10049581;28;20052;-68
2021/11/03 10:09:40;;;;;;;5.82;2.85;;;10.80;94.50;;;;;;10045514;28;19920;-67
2021/11/03 10:14:30;;;;;;;4.43;2.40;;;10.80;94.50;;;;;;10046533;28;20072;-68
2021/11/03 10:19:29;;;;;;;3.72;2.10;;;10.90;94.50;;;;;;10048776;28;20071;-69
2021/11/03 10:24:29;;;;;;;4.18;2.58;;;10.90;94.60;;;;;;10038399;28;20515;-70
2021/11/03 10:29:37;;;;;;;3.70;2.35;;;10.90;94.60;;;;;;10033707;28;20029;-67
2021/11/03 10:34:32;;;;;;;3.20;2.40;;;11.00;94.50;;;;;;10044174;28;20033;-69
2021/11/03 10:39:23;;;;;;;2.75;1.77;;;11.00;94.70;;;;;;10041071;28;20022;-69
2021/11/03 10:44:26;;;;;;;2.55;1.75;;;11.10;94.50;;;;;;10047291;28;20045;-67
2021/11/03 10:49:40;;;;;;;3.05;1.90;;;11.20;94.50;;;;;;10045119;28;20097;-68
2021/11/03 10:54:47;;;;;;;3.47;1.95;;;11.30;94.60;;;;;;10041250;28;20553;-68
2021/11/03 10:59:48;;;;;;;4.80;1.83;;;11.50;94.50;;;;;;10044982;28;20049;-69
2021/11/03 11:04:41;;;;;;;2.17;1.40;;;11.60;94.60;;;;;;10043889;28;20116;-69
2021/11/03 11:09:41;;;;;;;2.80;1.65;;;11.60;94.60;;;;;;10048872;28;20021;-69
2021/11/03 11:14:33;;;;;;;3.83;1.45;;;11.40;94.70;;;;;;10044421;28;20164;-68
2021/11/03 11:20:02;;;;;;;2.55;1.65;;;11.30;94.80;;;;;;10056351;28;20031;-69
2021/11/03 11:25:03;;;;;;;1.98;1.20;;;11.30;94.80;;;;;;10046715;28;20029;-64
2021/11/03 11:30:19;;;;;;;2.88;1.55;;;11.40;94.60;;;;;;10046061;28;20103;-66
2021/11/03 11:35:45;;;;;;;1.70;1.25;;;11.50;94.60;;;;;;10036205;28;20048;-67
2021/11/03 11:40:55;;;;;;;1.67;1.27;;;11.50;94.60;;;;;;10008926;28;20049;-70
2021/11/03 11:45:46;;;;;;;2.95;1.30;;;11.50;94.70;;;;;;10025461;28;20041;-71
2021/11/03 11:51:03;;;;;;;1.88;1.35;;;11.40;94.70;;;;;;10047723;28;20450;-69
2021/11/03 11:56:09;;;;;;;1.98;1.10;;;11.40;94.60;;;;;;10059833;28;20060;-74
2021/11/03 12:01:20;;;;;;;1.13;0.75;;;11.50;94.60;;;;;;10062739;28;20523;-70
2021/11/03 12:06:11;;;;;;;1.02;0.60;;;11.40;94.30;;;;;;10057549;28;20033;-69
2021/11/03 12:11:01;;;;;;;2.10;0.88;;;11.40;94.40;;;;;;10041258;28;20018;-68
2021/11/03 12:15:52;;;;;;;1.95;0.70;;;11.40;94.30;;;;;;10043180;28;20602;-68
2021/11/03 12:21:06;;;;;;;0.82;0.60;;;11.30;94.30;;;;;;10046963;28;20029;-68
2021/11/03 12:26:25;;;;;;;1.65;0.85;;;11.20;94.30;;;;;;10013576;28;20555;-69
2021/11/03 12:31:24;;;;;;;1.20;0.90;;;11.30;94.30;;;;;;10047193;28;20022;-69
2021/11/03 12:36:15;;;;;;;1.02;0.70;;;11.20;94.10;;;;;;10025930;28;20044;-69
2021/11/03 12:41:20;;;;;;;0.50;0.50;;;11.20;94.20;;;;;;10041005;28;20614;-68
2021/11/03 12:46:18;;;;;;;0.80;0.70;;;11.20;94.00;;;;;;10047635;28;20555;-68
2021/11/03 12:51:24;;;;;;;0.68;0.50;;;11.00;93.90;;;;;;10053061;28;20129;-72
2021/11/03 12:56:25;;;;;;;1.00;0.65;;;11.10;94.00;;;;;;10044704;28;20045;-68
2021/11/03 13:01:26;;;;;;;0.93;0.90;;;11.20;93.80;;;;;;10051179;28;20041;-69
2021/11/03 13:06:19;;;;;;;0.73;0.50;;;11.40;93.70;;;;;;10054450;28;20049;-70
2021/11/03 13:11:36;;;;;;;1.40;0.60;;;11.40;93.60;;;;;;10052308;28;20082;-72
2021/11/03 13:16:36;;;;;;;0.85;0.50;;;11.50;93.60;;;;;;10049493;28;20042;-70
2021/11/03 13:21:34;;;;;;;0.98;0.63;;;11.40;93.50;;;;;;10044280;28;20513;-66
2021/11/03 13:26:29;;;;;;;1.40;0.52;;;11.30;93.60;;;;;;10053457;28;20026;-75
2021/11/03 13:31:38;;;;;;;0.80;0.52;;;11.30;93.50;;;;;;10054597;28;20029;-69
2021/11/03 13:36:30;;;;;;;0.98;0.52;;;11.30;93.50;;;;;;10055575;28;20044;-72
2021/11/03 13:41:32;;;;;;;1.73;0.70;;;11.30;93.50;;;;;;10050244;28;20476;-64
2021/11/03 13:46:26;;;;;;;2.15;0.90;;;11.30;93.50;;;;;;10042323;28;20044;-65
2021/11/03 13:51:31;;;;;;;1.08;0.57;;;11.20;93.50;;;;;;10053484;28;20124;-70
2021/11/03 13:56:22;;;;;;;1.08;0.35;;;11.20;93.40;;;;;;10056294;28;20045;-67
2021/11/03 14:01:13;;;;;;;2.45;0.60;;;11.10;93.50;;;;;;10050425;28;20064;-69
2021/11/03 14:06:32;;;;;;;0.75;0.50;;;11.20;93.40;;;;;;10048753;28;20021;-70
2021/11/03 14:11:24;;;;;;;1.15;0.50;;;11.10;93.40;;;;;;10049269;28;20068;-71
2021/11/03 14:16:22;;;;;;;1.10;0.70;;;11.10;93.40;;;;;;10049855;28;20043;-70
2021/11/03 14:21:13;;;;;;;1.83;0.80;;;11.10;93.30;;;;;;10052446;28;20669;-67
2021/11/03 14:26:04;;;;;;;0.82;0.52;;;11.20;93.20;;;;;;10050812;28;20364;-68
2021/11/03 14:31:14;;;;;;;1.13;0.50;;;11.30;93.20;;;;;;10047274;28;20036;-67
2021/11/03 14:36:07;;;;;;;1.15;0.88;;;11.30;93.10;;;;;;10038339;28;20044;-67
2021/11/03 14:41:00;;;;;;;1.15;0.50;;;11.20;93.20;;;;;;10033766;28;20029;-66
2021/11/03 14:45:52;;;;;;;1.27;0.63;;;11.20;93.20;;;;;;10047506;28;20029;-68
2021/11/03 14:50:44;;;;;;;0.43;0.40;;;11.10;93.20;;;;;;10030931;28;20105;-70
2021/11/03 14:55:42;;;;;;;0.63;0.50;;;11.10;93.20;;;;;;10049158;28;20084;-65
2021/11/03 15:00:39;;;;;;;1.50;0.65;;;11.10;93.10;;;;;;10046123;28;20030;-68
2021/11/03 15:05:32;;;;;;;0.47;0.47;;;11.10;93.10;;;;;;10047539;28;20029;-67
2021/11/03 15:10:26;;;;;;;0.98;0.88;;;11.10;93.10;;;;;;10046751;28;20488;-73
2021/11/03 15:15:17;;;;;;;0.52;0.50;;;11.00;93.10;;;;;;10041186;28;20034;-66
2021/11/03 15:20:33;;;;;;;0.82;0.40;;;11.00;93.10;;;;;;10040756;28;20408;-65
2021/11/03 15:25:26;;;;;;;1.05;0.70;;;10.90;93.10;;;;;;10044234;28;20037;-67
2021/11/03 15:30:18;;;;;;;1.30;0.88;;;10.90;93.00;;;;;;10022460;28;20123;-61
2021/11/03 15:35:30;;;;;;;2.13;0.93;;;11.00;93.00;;;;;;10039421;28;20104;-62
2021/11/03 15:40:31;;;;;;;2.95;1.25;;;11.00;92.80;;;;;;10040703;28;20033;-62
2021/11/03 15:45:23;;;;;;;2.35;1.65;;;10.90;92.80;;;;;;10022328;28;20037;-72
2021/11/03 15:50:27;;;;;;;2.72;1.05;;;10.80;92.90;;;;;;10039086;28;20721;-66
2021/11/03 15:55:20;;;;;;;2.55;1.50;;;10.80;92.90;;;;;;10041713;28;20312;-66
2021/11/03 16:00:12;;;;;;;3.25;1.50;;;10.80;92.80;;;;;;10039801;28;20030;-67
2021/11/03 16:05:04;;;;;;;4.63;2.90;;;10.80;92.90;;;;;;10042691;28;20148;-67
2021/11/03 16:09:55;;;;;;;2.05;1.40;;;10.80;92.90;;;;;;10040398;28;20040;-71
2021/11/03 16:14:47;;;;;;;3.80;1.52;;;10.80;93.00;;;;;;10039596;28;20049;-66
2021/11/03 16:19:38;;;;;;;7.05;3.20;;;10.90;92.90;;;;;;10035834;28;20395;-68
2021/11/03 16:24:34;;;;;;;4.32;2.13;;;10.90;92.90;;;;;;10042372;28;20026;-68
2021/11/03 16:29:28;;;;;;;1.88;1.38;;;10.80;93.00;;;;;;10022901;28;20222;-71
2021/11/03 16:34:20;;;;;;;2.03;1.13;;;10.80;93.00;;;;;;10039271;28;20403;-69
2021/11/03 16:39:14;;;;;;;3.00;1.52;;;10.80;93.00;;;;;;10039249;28;20041;-69
2021/11/03 16:44:17;;;;;;;4.00;1.85;;;10.80;93.00;;;;;;10048587;28;20041;-70
2021/11/03 16:49:08;;;;;;;2.55;1.65;;;10.70;93.10;;;;;;10050662;28;22526;-67
2021/11/03 16:54:02;;;;;;;2.28;1.50;;;10.70;93.10;;;;;;10031756;28;20509;-68
2021/11/03 16:58:53;;;;;;;2.13;1.40;;;10.60;93.20;;;;;;10031000;28;20133;-68
2021/11/03 17:03:46;;;;;;;4.13;2.35;;;10.50;93.30;;;;;;10046491;28;20117;-68
2021/11/03 17:08:40;;;;;;;2.42;1.15;;;10.60;93.20;;;;;;10049085;28;20054;-67
2021/11/03 17:13:31;;;;;;;2.50;1.45;;;10.50;93.30;;;;;;10049852;28;20025;-69
2021/11/03 17:18:22;;;;;;;2.00;1.35;;;10.50;93.20;;;;;;10046475;28;20033;-68
2021/11/03 17:23:13;;;;;;;1.73;0.95;;;10.60;93.20;;;;;;10042119;28;20042;-69
2021/11/03 17:28:13;;;;;;;2.00;1.55;;;10.50;93.20;;;;;;10044096;28;20487;-69
2021/11/03 17:33:05;;;;;;;1.42;1.15;;;10.50;93.30;;;;;;10048328;28;20024;-70
2021/11/03 17:37:55;;;;;;;2.10;1.40;;;10.40;93.30;;;;;;10033235;28;20148;-69
2021/11/03 17:42:48;;;;;;;3.47;1.70;;;10.40;93.40;;;;;;10050519;28;20151;-70
2021/11/03 17:47:39;;;;;;;2.83;1.58;;;10.40;93.50;;;;;;10048274;28;20437;-69
2021/11/03 17:52:30;;;;;;;3.22;1.77;;;10.50;93.40;;;;;;10041115;28;20041;-69
2021/11/03 17:57:25;;;;;;;2.28;1.88;;;10.40;93.40;;;;;;10050572;28;20266;-65
2021/11/03 18:02:21;;;;;;;2.00;1.40;;;10.40;93.40;;;;;;10050193;28;20095;-64
2021/11/03 18:07:11;;;;;;;2.43;1.70;;;10.40;93.40;;;;;;10050305;28;20116;-68
2021/11/03 18:12:03;;;;;;;2.47;1.75;;;10.40;93.50;;;;;;10045962;28;20410;-67
2021/11/03 18:16:55;;;;;;;3.78;2.25;;;10.40;93.50;;;;;;10035620;28;20053;-67
2021/11/03 18:21:47;;;;;;;1.80;1.55;;;10.40;93.60;;;;;;10052901;28;20110;-69
2021/11/03 18:26:40;;;;;;;3.78;2.25;;;10.40;93.50;;;;;;10053204;28;20076;-67
2021/11/03 18:31:35;;;;;;;2.65;1.55;;;10.40;93.60;;;;;;10049008;28;20030;-66
2021/11/03 18:36:27;;;;;;;2.80;1.40;;;10.40;93.50;;;;;;10051765;28;20679;-65
2021/11/03 18:41:29;;;;;;;3.28;1.98;;;10.40;93.50;;;;;;10050695;28;20029;-66
2021/11/03 18:46:22;;;;;;;2.33;1.45;;;10.40;93.60;;;;;;10052851;28;20044;-67
2021/11/03 18:51:34;;;;;;;3.38;1.42;;;10.30;93.70;;;;;;10033565;28;20036;-66
2021/11/03 18:56:25;;;;;;;2.17;1.55;;;10.30;93.70;;;;;;10049342;28;20108;-66
2021/11/03 19:01:16;;;;;;;2.42;1.45;;;10.40;93.70;;;;;;10034012;28;20197;-70
2021/11/03 19:06:56;;;;;;;2.67;1.05;;;10.30;93.80;;;;;;10050030;28;20025;-65
2021/11/03 19:11:48;;;;;;;2.30;1.40;;;10.30;93.70;;;;;;9985491;28;20069;-65
2021/11/03 19:16:38;;;;;;;3.58;1.27;;;10.20;93.70;;;;;;10050103;28;20564;-65
2021/11/03 19:21:32;;;;;;;5.70;1.35;;;10.20;93.80;;;;;;10053225;28;20079;-66
2021/11/03 19:26:24;;;;;;;3.33;1.10;;;10.10;93.80;;;;;;10051341;28;20375;-65
2021/11/03 19:31:16;;;;;;;1.42;0.93;;;10.10;93.80;;;;;;10050466;28;20376;-69
2021/11/03 19:36:20;;;;;;;2.35;1.38;;;10.10;93.80;;;;;;10051767;28;20044;-65
2021/11/03 19:41:17;;;;;;;1.17;0.75;;;10.00;93.90;;;;;;10047236;28;20029;-65
2021/11/03 19:46:08;;;;;;;1.85;0.90;;;10.00;93.80;;;;;;10052446;28;20021;-66
2021/11/03 19:51:23;;;;;;;3.97;1.13;;;10.00;93.90;;;;;;10051332;28;20120;-65
2021/11/03 19:56:17;;;;;;;1.20;0.70;;;9.90;93.80;;;;;;10054457;28;20056;-66
2021/11/03 20:01:07;;;;;;;1.42;0.95;;;9.80;93.80;;;;;;10060434;28;20029;-65
2021/11/03 20:06:01;;;;;;;1.92;1.50;;;9.80;93.80;;;;;;10057764;28;20112;-66
2021/11/03 20:10:55;;;;;;;2.15;0.95;;;9.80;93.80;;;;;;10055672;28;20021;-66
2021/11/03 20:15:46;;;;;;;1.20;0.88;;;9.70;93.80;;;;;;10055713;28;20120;-66
2021/11/03 20:20:37;;;;;;;1.85;1.17;;;9.60;93.70;;;;;;10068554;28;20220;-66
2021/11/03 20:25:32;;;;;;;2.80;1.35;;;9.60;93.80;;;;;;10051216;28;20168;-66
2021/11/03 20:30:25;;;;;;;1.42;1.10;;;9.60;94.00;;;;;;10065423;28;20052;-65
2021/11/03 20:35:41;;;;;;;0.63;0.63;;;9.70;93.70;;;;;;10047397;28;20041;-67
2021/11/03 20:40:32;;;;;;;1.50;1.00;;;9.70;93.80;;;;;;10060691;28;20483;-66
2021/11/03 20:45:26;;;;;;;1.35;0.77;;;9.70;93.80;;;;;;10064246;28;20109;-68
2021/11/03 20:50:22;;;;;;;1.35;1.13;;;9.70;93.90;;;;;;10062420;28;20013;-65
2021/11/03 20:55:13;;;;;;;2.45;1.10;;;9.80;93.80;;;;;;10062583;28;20049;-67
2021/11/03 21:00:06;;;;;;;1.17;0.70;;;9.80;93.80;;;;;;10063658;28;20524;-69
2021/11/03 21:05:02;;;;;;;1.55;1.00;;;9.80;93.70;;;;;;10061853;28;20558;-68
2021/11/03 21:09:52;;;;;;;0.87;0.60;;;9.80;93.90;;;;;;10053255;28;20573;-66
2021/11/03 21:14:46;;;;;;;1.83;1.33;;;9.70;93.80;;;;;;10056282;28;20288;-72
2021/11/03 21:19:37;;;;;;;2.03;1.00;;;9.80;93.70;;;;;;10060756;28;20021;-65
2021/11/03 21:24:28;;;;;;;3.47;1.30;;;9.70;93.70;;;;;;10055487;28;20049;-67
2021/11/03 21:29:18;;;;;;;1.65;0.90;;;9.70;93.70;;;;;;10052480;28;20057;-65
2021/11/03 21:34:09;;;;;;;3.13;1.10;;;9.70;93.80;;;;;;10053087;28;20120;-66
2021/11/03 21:39:00;;;;;;;3.63;1.30;;;9.80;93.70;;;;;;10052506;28;20025;-66
2021/11/03 21:43:51;;;;;;;2.90;1.33;;;9.70;93.70;;;;;;10044780;28;20585;-67
2021/11/03 21:48:41;;;;;;;3.65;1.33;;;9.70;93.80;;;;;;10037450;28;20052;-67
2021/11/03 21:53:32;;;;;;;2.03;1.10;;;9.60;93.70;;;;;;10047155;28;20110;-66
2021/11/03 21:58:23;;;;;;;2.45;1.10;;;9.50;93.90;;;;;;10036355;28;20129;-69
2021/11/03 22:03:17;;;;;;;2.53;1.15;;;9.50;93.80;;;;;;10051901;28;20126;-64
2021/11/03 22:08:10;;;;;;;1.38;1.10;;;9.50;93.80;;;;;;10044588;28;20156;-65
2021/11/03 22:13:02;;;;;;;2.35;0.93;;;9.40;93.70;;;;;;10052545;28;20025;-68
2021/11/03 22:17:54;;;;;;;1.58;0.65;;;9.30;93.60;;;;;;10041340;28;20042;-66
2021/11/03 22:22:46;;;;;;;0.73;0.47;;;9.10;93.60;;;;;;10047483;28;20116;-65
2021/11/03 22:27:38;;;;;;;0.40;0.30;;;9.00;93.60;;;;;;10054194;28;20395;-65
2021/11/03 22:32:28;;;;;;;0.80;0.50;;;9.00;93.60;;;;;;10051344;28;20053;-64
2021/11/03 22:37:19;;;;;;;0.40;0.30;;;8.80;93.40;;;;;;10049715;28;20045;-65
2021/11/03 22:42:10;;;;;;;0.50;0.50;;;8.80;93.20;;;;;;10034208;28;20161;-66
2021/11/03 22:47:03;;;;;;;1.52;0.35;;;8.80;93.00;;;;;;10033962;28;20055;-65
2021/11/03 22:51:54;;;;;;;0.55;0.55;;;8.70;92.90;;;;;;10052268;28;20025;-65
2021/11/03 22:56:44;;;;;;;0.80;0.65;;;8.70;92.80;;;;;;10047193;28;20050;-65
2021/11/03 23:01:35;;;;;;;1.05;0.68;;;8.70;92.50;;;;;;10049886;28;20033;-66
2021/11/03 23:06:27;;;;;;;0.80;0.40;;;8.70;92.50;;;;;;10053706;28;20520;-64
2021/11/03 23:11:18;;;;;;;1.00;0.63;;;8.70;92.40;;;;;;10048353;28;20024;-65
2021/11/03 23:16:09;;;;;;;1.73;0.60;;;8.70;92.30;;;;;;10048927;28;20257;-66
2021/11/03 23:21:00;;;;;;;0.55;0.45;;;8.80;92.10;;;;;;10052489;28;20301;-65
2021/11/03 23:25:51;;;;;;;1.13;0.50;;;8.60;92.10;;;;;;10049203;28;20061;-66
2021/11/03 23:30:43;;;;;;;0.60;0.47;;;8.60;92.00;;;;;;10031221;28;20025;-65
2021/11/03 23:35:35;;;;;;;0.77;0.38;;;8.50;91.90;;;;;;10048705;28;20029;-65
2021/11/03 23:40:27;;;;;;;1.33;0.90;;;8.50;92.00;;;;;;10043060;28;20022;-65
2021/11/03 23:45:18;;;;;;;0.68;0.30;;;8.50;91.80;;;;;;10049349;28;20127;-65
2021/11/03 23:50:17;;;;;;;0.40;0.40;;;8.50;91.70;;;;;;10052021;28;20056;-66
2021/11/03 23:55:09;;;;;;;1.33;0.32;;;8.40;91.70;;;;;;10051135;28;20061;-65
